Waterville, MN (56096)

1:05 PM CST on January 26, 2015 (GMT -0600)
APRSWXNET Morristown MN US | Change Station
CLOSE
Current Station
Personal Weather Station
Location: Morristown, MN
Elevation: 1003 ft
Nearby Weather Stations

Elev 1003 ft 44.22 °N, 93.44 °W | Updated 32 minutes ago

Clear
Clear
41 °F
Feels Like 41 °F
N
3
Wind Variable Wind from WNW
Gusts 7.0 mph

Today
High -- | Low -- °F
--% Chance of Precip.
Yesterday
High -- | Low -- °F
Precip. -- in
7:38 AM 5:15 PM
Waxing Crescent, 45% visible
Pressure 29.76 in
Visibility 10.0 miles
Clouds Scattered Clouds 3100 ft
Windchill 41 °F
Dew Point 36 °F
Humidity 81%
Rainfall 0.00 in
Snow Depth Not available.
UV 2 out of 12
Pollen .10 out of 12
Air Quality Not available.
Flu Activity Not available.
METAR KACQ 261854Z AUTO 30015KT 10SM SCT031 05/02 A2976 RMK AO2

More Conditions Fewer Conditions

Pressure 29.76 in
Visibility 10.0 miles
Clouds Scattered Clouds 3100 ft
Windchill 41 °F
Dew Point 36 °F
Humidity 81%
Rainfall 0.00 in
Snow Depth Not available.
UV 2 out of 12
Pollen .10 out of 12
Air Quality Not available.
Flu Activity Not available.
METAR KACQ 261854Z AUTO 30015KT 10SM SCT031 05/02 A2976 RMK AO2

More Conditions Fewer Conditions

10-Day Weather Forecast

Almanac

Astronomy

Jan. 26, 2015 Rise Set
Actual Time
Civil Twilight
Nautical Twilight
Astronomical Twilight
Moon
Length of Visible Light
Length of Day
Tomorrow will be .
, % of the Moon is Illuminated

Today's Extremes

State Highs State Lows

Community

WunderPhotos

Upload Photos

1,790,329 photos uploaded!

WunderBlogs® & News

Nearby

Air Quality

  Air Quality AQ Index Pollutant
Not available.

Snow Depth

Station Depth Elevation

Earthquake Activity

City Distance Mag. Time & Date
Minimum magnitude displayed is 2.5.

Coastal Water Temperatures

Place Temperature

Nearby Weather Stations